Time;durP1;ratioP1;P1;durP2;ratioP2;P2;SDS_P1;SDS_P2;PMS_P1;PMS_P2;Temp;Humidity;BMP_temperature;BMP_pressure;BME280_temperature;BME280_humidity;BME280_pressure;Samples;Min_cycle;Max_cycle;Signal;HPM_P1;HPM_P2
2023/02/11 00:01:38;;;;;;;89.10;52.75;;;1.60;94.00;;;;;;5054247;28;20791;-51
2023/02/11 00:04:05;;;;;;;89.55;51.83;;;1.70;94.00;;;;;;5060746;28;20032;-51
2023/02/11 00:06:32;;;;;;;147.10;81.63;;;1.60;94.10;;;;;;5054444;28;20135;-52
2023/02/11 00:08:58;;;;;;;99.38;58.13;;;1.50;94.00;;;;;;5054877;28;20029;-51
2023/02/11 00:11:29;;;;;;;64.70;42.90;;;1.30;94.20;;;;;;5054700;28;20113;-51
2023/02/11 00:13:56;;;;;;;79.85;47.88;;;1.30;94.80;;;;;;5054581;28;20053;-51
2023/02/11 00:16:21;;;;;;;85.85;52.08;;;1.20;94.70;;;;;;5054391;28;20028;-51
2023/02/11 00:18:49;;;;;;;88.97;54.03;;;1.20;94.80;;;;;;5053097;28;20025;-52
2023/02/11 00:21:17;;;;;;;85.47;53.78;;;1.10;94.90;;;;;;5053315;28;20041;-51
2023/02/11 00:23:44;;;;;;;108.43;59.35;;;1.10;95.10;;;;;;5054229;28;20441;-53
2023/02/11 00:26:15;;;;;;;87.85;48.13;;;1.30;94.70;;;;;;5051418;28;20098;-52
2023/02/11 00:28:42;;;;;;;113.65;60.35;;;1.40;94.80;;;;;;5051844;28;20084;-52
2023/02/11 00:31:08;;;;;;;80.78;44.92;;;1.30;94.70;;;;;;5051262;28;20063;-52
2023/02/11 00:33:34;;;;;;;79.25;45.95;;;1.30;94.90;;;;;;5053830;28;20416;-51
2023/02/11 00:36:03;;;;;;;63.60;39.88;;;;;;;;;;5053469;28;20029;-51
2023/02/11 00:38:29;;;;;;;73.03;40.67;;;;;;;;;;5053314;28;20024;-52
2023/02/11 00:40:55;;;;;;;88.57;48.53;;;;;;;;;;5053922;28;20033;-51
2023/02/11 00:43:21;;;;;;;106.28;54.88;;;;;;;;;;5053959;28;20056;-51
2023/02/11 00:45:47;;;;;;;116.65;65.18;;;;;;;;;;5053838;28;20033;-52
2023/02/11 00:48:14;;;;;;;105.68;56.40;;;;;;;;;;5068923;28;20052;-51
2023/02/11 00:50:40;;;;;;;113.07;66.80;;;;;;;;;;5053964;28;20029;-51
2023/02/11 00:53:06;;;;;;;89.80;55.13;;;1.10;99.90;;;;;;5053614;28;20495;-51
2023/02/11 00:55:32;;;;;;;108.70;69.05;;;0.90;95.80;;;;;;5054230;28;20033;-51
2023/02/11 00:57:58;;;;;;;89.10;54.08;;;0.90;95.90;;;;;;5053501;28;20098;-51
2023/02/11 01:00:25;;;;;;;89.20;55.10;;;1.00;95.40;;;;;;5053463;28;20090;-51
2023/02/11 01:02:51;;;;;;;94.13;55.20;;;1.00;95.20;;;;;;5053679;28;20178;-51
2023/02/11 01:05:17;;;;;;;93.20;55.72;;;1.10;95.20;;;;;;5053947;28;20532;-51
2023/02/11 01:07:42;;;;;;;86.38;53.35;;;1.10;95.30;;;;;;5054406;28;20048;-51
2023/02/11 01:10:09;;;;;;;153.52;106.70;;;1.10;95.00;;;;;;5053477;28;20032;-51
2023/02/11 01:12:35;;;;;;;149.68;78.82;;;0.80;95.30;;;;;;5084894;28;20508;-51
2023/02/11 01:15:01;;;;;;;89.20;56.25;;;0.90;95.50;;;;;;5053326;28;20039;-51
2023/02/11 01:17:27;;;;;;;108.68;62.83;;;0.90;95.30;;;;;;5053414;28;20041;-52
2023/02/11 01:19:53;;;;;;;86.22;52.33;;;1.00;95.10;;;;;;5051468;28;20052;-51
2023/02/11 01:22:19;;;;;;;77.22;47.15;;;1.10;95.10;;;;;;5053232;28;20033;-52
2023/02/11 01:24:45;;;;;;;90.10;58.22;;;1.20;94.90;;;;;;5052042;28;20500;-52
2023/02/11 01:27:10;;;;;;;86.40;56.67;;;1.20;95.10;;;;;;5051472;28;20041;-51
2023/02/11 01:29:36;;;;;;;114.30;70.80;;;1.30;94.80;;;;;;5053419;28;20519;-51
2023/02/11 01:32:02;;;;;;;112.28;64.18;;;1.20;94.80;;;;;;5068158;28;20179;-51
2023/02/11 01:34:28;;;;;;;112.32;66.88;;;1.20;94.80;;;;;;5053286;28;20065;-51
2023/02/11 01:36:58;;;;;;;112.57;65.85;;;1.30;94.70;;;;;;5052102;28;20469;-51
2023/02/11 01:39:24;;;;;;;86.90;53.13;;;1.30;94.70;;;;;;5052985;28;20033;-51
2023/02/11 01:41:50;;;;;;;71.55;46.85;;;1.30;94.70;;;;;;5034499;28;20554;-52
2023/02/11 01:44:27;;;;;;;85.70;52.05;;;1.30;94.80;;;;;;5052680;28;20032;-51
2023/02/11 01:46:53;;;;;;;108.05;61.65;;;1.30;94.70;;;;;;5018032;28;20104;-52
2023/02/11 01:49:44;;;;;;;115.28;66.13;;;1.30;94.70;;;;;;5052814;28;20040;-51
2023/02/11 01:52:17;;;;;;;120.25;68.15;;;1.40;94.60;;;;;;5053464;28;20090;-51
2023/02/11 01:57:44;;;;;;;122.75;71.40;;;1.30;94.60;;;;;;5052535;28;20125;-51
2023/02/11 02:00:12;;;;;;;116.68;64.25;;;1.20;94.70;;;;;;5053174;28;20396;-51
2023/02/11 02:03:12;;;;;;;113.43;67.60;;;1.20;94.70;;;;;;5053202;28;20032;-51
2023/02/11 02:05:52;;;;;;;77.80;50.88;;;1.10;94.70;;;;;;5050630;28;20171;-51
2023/02/11 02:08:28;;;;;;;90.32;55.58;;;1.00;95.00;;;;;;5001242;28;20041;-51
2023/02/11 02:10:55;;;;;;;88.85;54.13;;;1.00;94.90;;;;;;5017456;28;20052;-51
2023/02/11 02:13:24;;;;;;;61.67;42.92;;;0.50;95.20;;;;;;5050504;28;20044;-51
2023/02/11 02:15:58;;;;;;;60.05;40.80;;;-0.20;96.00;;;;;;5050584;28;20037;-52
2023/02/11 02:18:49;;;;;;;57.78;37.80;;;-0.20;96.50;;;;;;5050568;28;20052;-51
2023/02/11 02:21:39;;;;;;;73.60;44.78;;;-0.10;96.70;;;;;;5050289;28;20480;-51
2023/02/11 02:24:17;;;;;;;73.60;46.95;;;0.10;96.30;;;;;;5050245;28;20060;-51
2023/02/11 02:27:02;;;;;;;75.22;45.88;;;0.40;96.00;;;;;;5050362;28;20041;-51
2023/02/11 02:29:54;;;;;;;73.13;44.15;;;0.50;95.60;;;;;;5050443;28;20475;-51
2023/02/11 02:32:41;;;;;;;79.00;47.13;;;0.60;95.20;;;;;;5045459;28;20079;-51
2023/02/11 02:35:33;;;;;;;78.07;47.15;;;0.60;95.40;;;;;;5050505;28;20064;-51
2023/02/11 02:38:08;;;;;;;68.20;43.75;;;0.70;95.20;;;;;;5050271;28;20060;-51
2023/02/11 02:40:45;;;;;;;76.10;45.53;;;0.70;95.10;;;;;;5050457;28;20041;-51
2023/02/11 02:43:12;;;;;;;71.30;43.22;;;0.70;95.10;;;;;;5052462;28;20041;-51
2023/02/11 02:45:38;;;;;;;68.88;41.75;;;0.60;95.00;;;;;;5052537;28;20044;-51
2023/02/11 02:48:04;;;;;;;132.10;64.75;;;0.70;94.80;;;;;;5053043;28;20380;-51
2023/02/11 02:50:35;;;;;;;77.32;43.83;;;0.60;94.90;;;;;;5070622;28;20409;-51
2023/02/11 02:53:35;;;;;;;49.78;31.98;;;0.10;95.40;;;;;;5056267;28;20419;-51
2023/02/11 02:56:20;;;;;;;42.85;26.25;;;-0.50;96.20;;;;;;5056127;28;20033;-51
2023/02/11 02:59:04;;;;;;;43.45;28.13;;;;;;;;;;5055827;28;20045;-52
2023/02/11 03:01:29;;;;;;;45.65;28.58;;;-1.30;99.90;;;;;;5056361;28;20411;-51
2023/02/11 03:04:31;;;;;;;43.20;28.33;;;-1.50;99.60;;;;;;5037308;28;20047;-51
2023/02/11 03:07:19;;;;;;;37.45;25.08;;;-1.70;99.90;;;;;;5035875;28;20120;-51
2023/02/11 03:10:03;;;;;;;43.65;26.88;;;-2.10;99.90;;;;;;5050584;28;20500;-51
2023/02/11 03:12:31;;;;;;;46.47;28.20;;;-2.10;99.90;;;;;;5035891;28;20091;-51
2023/02/11 03:14:58;;;;;;;43.13;29.15;;;-2.10;99.90;;;;;;5035580;28;20057;-51
2023/02/11 03:17:27;;;;;;;40.60;26.83;;;-2.30;99.90;;;;;;5050324;28;20037;-51
2023/02/11 03:19:54;;;;;;;39.08;27.05;;;-2.20;99.90;;;;;;5035565;28;20034;-52
2023/02/11 03:22:29;;;;;;;44.45;27.73;;;-2.00;99.90;;;;;;5035732;28;20481;-51
2023/02/11 03:24:55;;;;;;;43.05;28.35;;;-1.70;99.90;;;;;;5035900;28;20036;-51
2023/02/11 03:27:46;;;;;;;68.65;37.50;;;-1.30;99.90;;;;;;5033735;28;20061;-51
2023/02/11 03:30:16;;;;;;;83.57;44.70;;;;;;;;;;5033266;28;20048;-51
2023/02/11 03:32:50;;;;;;;74.90;42.70;;;-1.10;99.90;;;;;;5016639;28;20125;-51
2023/02/11 03:35:19;;;;;;;78.72;42.80;;;;;;;;;;5033259;28;20041;-51
2023/02/11 03:37:51;;;;;;;56.13;33.97;;;;;;;;;;5016149;28;20041;-52
2023/02/11 03:40:28;;;;;;;50.83;29.70;;;;;;;;;;5033112;28;20108;-52
2023/02/11 03:43:03;;;;;;;45.58;29.23;;;-1.30;99.90;;;;;;5033091;28;20030;-52
2023/02/11 03:45:29;;;;;;;41.28;26.00;;;-1.30;99.90;;;;;;5032911;28;20033;-51
2023/02/11 03:48:24;;;;;;;35.58;21.77;;;-1.70;99.90;;;;;;5016375;28;20128;-51
2023/02/11 03:50:51;;;;;;;38.88;24.80;;;-2.00;99.90;;;;;;5032743;28;20036;-51
2023/02/11 03:53:19;;;;;;;41.45;26.45;;;-2.10;99.90;;;;;;5032825;28;20032;-51
2023/02/11 03:55:47;;;;;;;41.58;24.65;;;-2.40;99.90;;;;;;5032612;28;20477;-52
2023/02/11 03:58:13;;;;;;;41.42;25.95;;;-2.20;99.90;;;;;;5032694;28;20053;-51
2023/02/11 04:00:41;;;;;;;43.75;26.85;;;-2.20;99.90;;;;;;5031765;28;20095;-51
2023/02/11 04:03:08;;;;;;;43.58;27.05;;;-2.10;99.90;;;;;;5032771;28;20033;-51
2023/02/11 04:05:34;;;;;;;44.42;28.02;;;-1.50;99.90;;;;;;5016106;28;20040;-51
2023/02/11 04:08:02;;;;;;;46.15;28.83;;;-1.60;99.90;;;;;;5012414;28;20053;-51
2023/02/11 04:10:27;;;;;;;46.90;29.15;;;-1.60;99.90;;;;;;5034663;28;20462;-51
2023/02/11 04:12:53;;;;;;;39.67;25.63;;;-1.50;99.90;;;;;;5034593;28;20032;-51
2023/02/11 04:15:19;;;;;;;38.45;22.10;;;;;;;;;;5036275;28;20021;-51
2023/02/11 04:17:45;;;;;;;45.30;24.25;;;-2.10;99.90;;;;;;5069149;28;20041;-52
2023/02/11 04:20:11;;;;;;;40.05;26.08;;;-2.40;99.90;;;;;;5054488;28;20032;-51
2023/02/11 04:22:37;;;;;;;47.97;28.40;;;-2.40;99.90;;;;;;5054866;28;20032;-51
2023/02/11 04:25:04;;;;;;;41.33;26.27;;;-2.40;99.90;;;;;;5054402;28;20033;-51
2023/02/11 04:27:30;;;;;;;44.90;26.48;;;-2.40;99.90;;;;;;5069155;28;20032;-51
2023/02/11 04:29:56;;;;;;;47.10;26.75;;;-2.30;99.90;;;;;;5086054;28;20096;-51
2023/02/11 04:32:22;;;;;;;41.92;25.08;;;-2.10;99.90;;;;;;5054185;28;20064;-51
2023/02/11 04:34:48;;;;;;;43.50;25.77;;;-2.10;99.90;;;;;;5052963;28;20389;-51
2023/02/11 04:37:14;;;;;;;42.67;25.90;;;-1.90;99.90;;;;;;5031844;28;20092;-51
2023/02/11 04:39:40;;;;;;;40.20;24.85;;;-1.90;99.90;;;;;;5032289;28;20494;-51
2023/02/11 04:42:06;;;;;;;44.08;28.10;;;-2.10;99.90;;;;;;5041673;28;20029;-51
2023/02/11 04:44:32;;;;;;;42.10;24.13;;;-2.30;99.90;;;;;;5054056;28;20404;-51
2023/02/11 04:46:58;;;;;;;41.60;26.08;;;-2.60;99.90;;;;;;5085938;28;20032;-51
2023/02/11 04:49:24;;;;;;;45.78;26.20;;;-2.50;99.90;;;;;;5053894;28;20553;-51
2023/02/11 04:51:49;;;;;;;43.30;27.40;;;-2.20;99.90;;;;;;5053357;28;20036;-51
2023/02/11 04:54:16;;;;;;;43.50;28.27;;;;;;;;;;5053734;28;20029;-51
2023/02/11 04:56:42;;;;;;;43.22;28.30;;;-1.50;99.90;;;;;;5054103;28;20033;-51
2023/02/11 04:59:07;;;;;;;46.17;28.38;;;-2.00;99.90;;;;;;5053578;28;20378;-51
2023/02/11 05:01:33;;;;;;;43.70;27.92;;;-1.50;99.90;;;;;;5034784;28;20378;-51
2023/02/11 05:03:59;;;;;;;39.20;25.92;;;-1.40;99.90;;;;;;5053578;28;20037;-51
2023/02/11 05:06:25;;;;;;;41.58;27.90;;;-1.40;99.90;;;;;;5053540;28;20033;-51
2023/02/11 05:08:51;;;;;;;53.97;31.70;;;-1.40;99.90;;;;;;5053619;28;20033;-52
2023/02/11 05:11:20;;;;;;;43.28;26.98;;;-1.10;99.90;;;;;;5053708;28;20079;-51
2023/02/11 05:13:46;;;;;;;42.97;27.08;;;;;;;;;;5053278;28;20040;-51
2023/02/11 05:16:13;;;;;;;45.38;28.42;;;-0.80;99.90;;;;;;5053474;28;20044;-51
2023/02/11 05:18:41;;;;;;;51.67;33.33;;;-1.00;99.90;;;;;;5051778;28;20074;-51
2023/02/11 05:21:08;;;;;;;52.72;32.60;;;-0.90;99.90;;;;;;5058929;28;20521;-51
2023/02/11 05:23:34;;;;;;;52.65;32.00;;;-0.80;99.90;;;;;;5053267;28;20380;-52
2023/02/11 05:26:00;;;;;;;45.40;30.35;;;-0.60;99.90;;;;;;5053662;28;20028;-51
2023/02/11 05:28:27;;;;;;;48.15;30.90;;;-0.60;99.90;;;;;;5053351;28;20037;-51
2023/02/11 05:30:52;;;;;;;47.05;29.77;;;-0.70;99.90;;;;;;5053443;28;20033;-51
2023/02/11 05:33:18;;;;;;;57.95;38.92;;;-0.90;99.90;;;;;;5067679;28;20404;-51
2023/02/11 05:35:44;;;;;;;50.60;33.38;;;-0.80;99.90;;;;;;5053438;28;20031;-52
2023/02/11 05:38:10;;;;;;;48.20;32.63;;;-0.70;99.90;;;;;;5053407;28;20420;-51
2023/02/11 05:40:36;;;;;;;47.35;31.83;;;-0.60;99.90;;;;;;5052997;28;20116;-51
2023/02/11 05:43:02;;;;;;;48.88;33.33;;;-0.50;99.90;;;;;;5053030;28;20029;-51
2023/02/11 05:45:28;;;;;;;104.88;59.38;;;-0.30;99.90;;;;;;5051157;28;20568;-51
2023/02/11 05:47:53;;;;;;;66.05;42.80;;;-0.20;99.90;;;;;;5052168;28;20028;-52
2023/02/11 05:50:19;;;;;;;63.60;39.22;;;-0.20;99.90;;;;;;5052421;28;20025;-51
2023/02/11 05:52:45;;;;;;;62.22;37.35;;;-0.20;99.90;;;;;;5051795;28;20025;-51
2023/02/11 05:55:11;;;;;;;59.13;39.08;;;-0.10;99.90;;;;;;5033589;28;20468;-51
2023/02/11 05:57:37;;;;;;;68.78;41.92;;;-0.10;99.90;;;;;;5051518;28;20080;-52
2023/02/11 06:00:04;;;;;;;60.72;40.67;;;-0.20;99.90;;;;;;5050363;28;20495;-51
2023/02/11 06:02:29;;;;;;;61.90;39.10;;;-0.30;99.90;;;;;;5033313;28;20431;-52
2023/02/11 06:04:55;;;;;;;55.08;37.10;;;-0.20;99.90;;;;;;5026229;28;20060;-52
2023/02/11 06:07:21;;;;;;;49.22;32.67;;;-0.20;99.90;;;;;;5025372;28;20491;-51
2023/02/11 06:09:46;;;;;;;44.65;28.77;;;-0.10;99.90;;;;;;5050085;28;20393;-52
2023/02/11 06:12:12;;;;;;;40.20;27.13;;;-0.20;99.90;;;;;;5000798;28;20032;-55
2023/02/11 06:14:38;;;;;;;90.88;50.33;;;-0.10;99.90;;;;;;5049808;28;20018;-52
2023/02/11 06:17:04;;;;;;;109.43;62.10;;;-0.10;99.90;;;;;;5015929;28;20044;-51
2023/02/11 06:19:30;;;;;;;87.63;52.67;;;0.10;99.90;;;;;;5050760;28;20086;-51
2023/02/11 06:21:56;;;;;;;76.20;49.50;;;0.40;99.90;;;;;;5024102;28;20072;-52
2023/02/11 06:24:23;;;;;;;51.60;33.83;;;1.70;99.90;;;;;;5052799;28;20029;-52
2023/02/11 06:26:48;;;;;;;39.95;29.05;;;2.90;99.60;;;;;;5053058;28;20060;-51
2023/02/11 06:29:14;;;;;;;47.30;31.92;;;3.90;98.70;;;;;;5053044;28;20480;-52
2023/02/11 06:31:40;;;;;;;43.45;31.05;;;5.30;97.80;;;;;;5053574;28;20067;-52
2023/02/11 06:34:07;;;;;;;47.05;34.95;;;6.20;94.70;;;;;;5055349;28;20404;-51
2023/02/11 06:36:33;;;;;;;49.28;34.33;;;;;;;;;;5055900;28;20029;-52
2023/02/11 06:38:59;;;;;;;58.33;36.90;;;8.40;99.90;;;;;;5055756;28;20078;-52
2023/02/11 06:41:25;;;;;;;65.95;39.75;;;;;;;;;;5074483;28;20037;-52
2023/02/11 06:43:53;;;;;;;61.05;39.30;;;10.30;99.90;;;;;;5059444;28;20029;-52
2023/02/11 06:46:19;;;;;;;69.55;42.88;;;10.90;89.80;;;;;;5037129;28;20170;-50
2023/02/11 06:48:45;;;;;;;68.47;43.00;;;;;;;;;;5056069;28;20074;-53
2023/02/11 06:51:12;;;;;;;71.93;44.50;;;12.10;87.90;;;;;;5070959;28;20048;-52
2023/02/11 06:53:40;;;;;;;64.57;41.92;;;;;;;;;;5021424;28;20374;-53
2023/02/11 06:56:08;;;;;;;68.68;45.03;;;;;;;;;;5056592;28;20033;-53
2023/02/11 06:58:34;;;;;;;69.90;45.53;;;13.70;99.90;;;;;;5071060;28;20050;-52
2023/02/11 07:01:05;;;;;;;72.40;47.20;;;;;;;;;;5058006;28;20431;-53
2023/02/11 07:03:31;;;;;;;61.05;42.30;;;;;;;;;;5058099;28;20044;-53
2023/02/11 07:05:57;;;;;;;51.78;36.70;;;;;;;;;;5071221;28;20401;-54
2023/02/11 07:08:23;;;;;;;50.35;37.15;;;;;;;;;;5057380;28;20491;-57
2023/02/11 07:10:49;;;;;;;45.63;33.10;;;;;;;;;;5055772;28;20024;-53
2023/02/11 07:13:15;;;;;;;42.78;32.03;;;;;;;;;;5055281;28;20056;-52
2023/02/11 07:15:40;;;;;;;47.42;34.25;;;16.20;91.20;;;;;;5055678;28;20074;-52
2023/02/11 07:18:06;;;;;;;58.40;37.55;;;16.10;78.00;;;;;;5055677;28;20025;-53
2023/02/11 07:20:32;;;;;;;56.50;36.67;;;15.90;76.60;;;;;;5054101;28;20063;-52
2023/02/11 07:22:58;;;;;;;49.20;34.90;;;;;;;;;;5055803;28;20036;-53
2023/02/11 07:25:25;;;;;;;50.33;34.10;;;16.30;76.70;;;;;;5086733;28;20029;-53
2023/02/11 07:27:51;;;;;;;48.60;35.47;;;16.60;75.80;;;;;;5054783;28;20082;-53
2023/02/11 07:30:17;;;;;;;47.80;35.20;;;16.40;75.70;;;;;;5055170;28;20155;-53
2023/02/11 07:32:43;;;;;;;55.08;40.20;;;15.00;74.90;;;;;;5054716;28;20499;-53
2023/02/11 07:35:08;;;;;;;49.80;38.13;;;14.90;90.40;;;;;;5068333;28;20029;-54
2023/02/11 07:37:34;;;;;;;44.38;33.50;;;15.20;76.00;;;;;;5055016;28;20427;-53
2023/02/11 07:40:01;;;;;;;44.42;33.58;;;;;;;;;;5055121;28;20048;-53
2023/02/11 07:42:26;;;;;;;43.83;35.55;;;14.40;76.60;;;;;;5054718;28;20376;-53
2023/02/11 07:44:52;;;;;;;46.20;34.63;;;15.00;77.40;;;;;;5054859;28;20095;-52
2023/02/11 07:47:18;;;;;;;46.45;36.45;;;16.50;75.30;;;;;;5054631;28;20037;-52
2023/02/11 07:49:44;;;;;;;46.35;35.78;;;;;;;;;;5055011;28;20033;-53
2023/02/11 07:52:10;;;;;;;46.80;36.42;;;17.60;76.90;;;;;;5054908;28;20049;-52
2023/02/11 07:54:36;;;;;;;47.38;37.20;;;17.90;72.70;;;;;;5055092;28;20071;-52
2023/02/11 07:57:01;;;;;;;48.78;36.53;;;17.00;72.00;;;;;;5086128;28;20037;-52
2023/02/11 07:59:27;;;;;;;51.13;38.08;;;17.10;72.60;;;;;;5054912;28;20025;-52
2023/02/11 08:01:53;;;;;;;54.53;40.72;;;17.50;73.10;;;;;;5054685;28;20036;-52
2023/02/11 08:04:19;;;;;;;56.03;41.22;;;;;;;;;;5019837;28;20492;-52
2023/02/11 08:06:45;;;;;;;46.28;33.95;;;;;;;;;;5054778;28;20242;-53
2023/02/11 08:09:15;;;;;;;48.35;36.92;;;;;;;;;;5054814;28;20029;-51
2023/02/11 08:11:41;;;;;;;42.35;34.20;;;18.30;72.10;;;;;;5054744;28;20115;-51
2023/02/11 08:14:08;;;;;;;43.15;34.13;;;18.00;72.00;;;;;;5054369;28;20107;-52
2023/02/11 08:16:35;;;;;;;45.25;33.10;;;19.00;72.10;;;;;;5054602;28;20036;-51
2023/02/11 08:19:05;;;;;;;42.58;32.90;;;18.10;71.80;;;;;;5054352;28;20028;-52
2023/02/11 08:21:31;;;;;;;50.67;36.88;;;17.60;71.60;;;;;;5054419;28;20041;-52
2023/02/11 08:23:56;;;;;;;42.35;32.42;;;17.50;73.20;;;;;;5054516;28;20032;-52
2023/02/11 08:26:25;;;;;;;53.67;40.08;;;17.80;72.30;;;;;;5054361;28;20025;-52
2023/02/11 08:28:53;;;;;;;43.75;35.45;;;19.00;71.50;;;;;;5054622;28;20021;-52
2023/02/11 08:31:24;;;;;;;48.00;37.90;;;19.70;88.70;;;;;;5054302;28;20025;-51
2023/02/11 08:33:50;;;;;;;54.47;39.67;;;20.00;77.90;;;;;;5053481;28;20029;-52
2023/02/11 08:36:20;;;;;;;67.40;49.38;;;20.20;89.60;;;;;;5059671;28;20033;-51
2023/02/11 08:38:46;;;;;;;59.03;44.38;;;20.30;69.60;;;;;;5058580;28;20037;-52
2023/02/11 08:41:13;;;;;;;44.30;32.83;;;;;;;;;;5054004;28;20061;-52
2023/02/11 08:43:40;;;;;;;43.10;32.42;;;20.90;67.40;;;;;;5054147;28;20064;-51
2023/02/11 08:46:07;;;;;;;38.63;30.95;;;21.10;67.60;;;;;;5053640;28;20025;-52
2023/02/11 08:48:34;;;;;;;38.40;29.50;;;;;;;;;;5053913;28;20025;-51
2023/02/11 08:51:00;;;;;;;37.22;30.77;;;;;;;;;;5054091;28;20115;-51
2023/02/11 08:53:26;;;;;;;36.92;31.05;;;22.80;65.20;;;;;;5054220;28;20531;-49
2023/02/11 08:55:54;;;;;;;39.33;31.25;;;22.70;65.60;;;;;;5085577;28;20032;-50
2023/02/11 08:58:20;;;;;;;40.00;33.20;;;22.80;65.60;;;;;;5053707;28;20486;-49
2023/02/11 09:00:48;;;;;;;36.70;30.42;;;21.80;65.40;;;;;;5053827;28;20136;-49
2023/02/11 09:03:15;;;;;;;36.10;29.38;;;21.60;65.90;;;;;;5071176;28;20072;-49
2023/02/11 09:05:45;;;;;;;60.47;45.35;;;22.00;65.60;;;;;;5071466;28;20044;-49
2023/02/11 09:08:11;;;;;;;53.03;40.55;;;21.10;65.30;;;;;;5070873;28;20162;-50
2023/02/11 09:10:38;;;;;;;41.42;31.35;;;20.60;65.00;;;;;;5071527;28;20071;-50
2023/02/11 09:13:04;;;;;;;35.75;31.25;;;21.60;65.00;;;;;;5071052;28;20093;-49
2023/02/11 09:15:30;;;;;;;31.77;26.40;;;;;;;;;;5071297;28;20024;-49
2023/02/11 09:17:56;;;;;;;45.88;36.92;;;22.90;63.60;;;;;;5071343;28;20041;-50
2023/02/11 09:20:22;;;;;;;39.30;28.35;;;22.80;63.60;;;;;;5037844;28;20417;-50
2023/02/11 09:22:48;;;;;;;35.22;29.40;;;22.40;63.00;;;;;;5037897;28;20437;-49
2023/02/11 09:25:14;;;;;;;35.63;28.40;;;21.50;63.20;;;;;;5070243;28;20090;-51
2023/02/11 09:27:40;;;;;;;34.60;28.10;;;20.60;63.80;;;;;;5071510;28;20032;-50
2023/02/11 09:30:06;;;;;;;42.38;32.53;;;21.50;64.10;;;;;;5068260;28;20024;-50
2023/02/11 09:32:32;;;;;;;46.00;32.10;;;19.10;64.60;;;;;;5069920;28;20524;-50
2023/02/11 09:34:58;;;;;;;37.92;29.05;;;20.90;64.80;;;;;;5019584;28;20031;-50
2023/02/11 09:37:24;;;;;;;26.13;22.48;;;20.20;64.40;;;;;;5053035;28;20029;-51
2023/02/11 09:39:50;;;;;;;32.42;28.70;;;18.70;64.10;;;;;;5051503;28;20052;-50
2023/02/11 09:42:56;;;;;;;31.15;27.33;;;18.90;64.90;;;;;;5053363;28;20434;-50
2023/02/11 09:45:28;;;;;;;30.73;27.15;;;19.00;64.50;;;;;;5053245;28;20369;-50
2023/02/11 09:47:59;;;;;;;32.38;25.23;;;20.60;65.20;;;;;;5034659;28;20548;-49
2023/02/11 09:50:32;;;;;;;32.13;26.83;;;20.90;64.30;;;;;;5052587;28;20481;-50
2023/02/11 09:53:09;;;;;;;33.92;27.98;;;21.10;63.20;;;;;;5052660;28;20036;-49
2023/02/11 09:55:42;;;;;;;34.20;28.58;;;21.10;63.90;;;;;;5052328;28;20043;-50
2023/02/11 09:58:20;;;;;;;32.72;27.63;;;20.60;63.70;;;;;;5051713;28;20048;-49
2023/02/11 10:01:04;;;;;;;30.85;26.92;;;21.20;63.10;;;;;;5051552;28;20036;-50
2023/02/11 10:03:47;;;;;;;33.97;27.05;;;19.80;63.00;;;;;;5052848;28;20037;-50
2023/02/11 10:06:22;;;;;;;35.20;27.77;;;19.40;65.00;;;;;;5051439;28;20393;-49
2023/02/11 10:09:10;;;;;;;40.08;29.10;;;18.40;65.80;;;;;;5053072;28;20380;-50
2023/02/11 10:12:14;;;;;;;35.90;30.20;;;19.50;66.30;;;;;;5052723;28;20025;-50
2023/02/11 10:15:13;;;;;;;34.15;28.63;;;17.50;65.80;;;;;;5051969;28;20445;-50
2023/02/11 10:18:00;;;;;;;35.20;28.17;;;17.10;67.80;;;;;;5052442;28;20021;-50
2023/02/11 10:20:36;;;;;;;36.55;28.38;;;18.90;65.90;;;;;;5052581;28;20025;-51
2023/02/11 10:23:15;;;;;;;45.97;38.47;;;19.80;66.50;;;;;;5052492;28;20048;-50
2023/02/11 10:25:49;;;;;;;30.60;26.17;;;19.10;65.40;;;;;;5049674;28;20495;-52
2023/02/11 10:28:26;;;;;;;37.30;28.10;;;19.30;65.30;;;;;;5049130;28;20167;-50
2023/02/11 10:31:17;;;;;;;27.23;22.98;;;19.90;65.60;;;;;;5050041;28;20481;-50
2023/02/11 10:33:45;;;;;;;43.78;31.30;;;20.50;63.80;;;;;;5049582;28;20029;-50
2023/02/11 10:36:13;;;;;;;55.83;37.72;;;19.50;64.60;;;;;;5050219;28;20021;-50
2023/02/11 10:38:39;;;;;;;26.40;21.58;;;19.20;65.30;;;;;;5051643;28;20029;-50
2023/02/11 10:41:05;;;;;;;120.20;87.13;;;19.90;64.30;;;;;;5045515;28;20033;-50
2023/02/11 10:43:32;;;;;;;76.97;56.70;;;19.50;63.90;;;;;;5051444;28;20036;-52
2023/02/11 10:46:01;;;;;;;35.95;26.60;;;19.10;64.20;;;;;;5044924;28;20025;-53
2023/02/11 10:48:48;;;;;;;29.55;24.17;;;19.60;65.60;;;;;;5035722;28;20040;-49
2023/02/11 10:51:26;;;;;;;22.25;19.67;;;19.80;64.60;;;;;;5051085;28;20036;-49
2023/02/11 10:54:23;;;;;;;26.88;22.45;;;20.40;63.30;;;;;;5051673;28;20465;-49
2023/02/11 10:56:51;;;;;;;28.05;21.17;;;20.50;63.40;;;;;;5032345;28;20033;-49
2023/02/11 10:59:28;;;;;;;28.90;22.67;;;20.30;63.40;;;;;;5052161;28;20029;-48
2023/02/11 11:01:56;;;;;;;23.90;20.10;;;;;;;;;;5050272;28;20063;-49
2023/02/11 11:04:28;;;;;;;25.55;19.45;;;20.00;92.90;;;;;;5052388;28;20127;-48
2023/02/11 11:06:53;;;;;;;31.20;24.58;;;20.60;67.60;;;;;;5050607;28;20108;-50
2023/02/11 11:09:37;;;;;;;26.45;20.80;;;20.50;63.90;;;;;;5052438;28;20135;-54
2023/02/11 11:12:03;;;;;;;24.27;19.73;;;19.80;68.20;;;;;;5053521;28;20033;-54
2023/02/11 11:14:28;;;;;;;25.15;19.88;;;18.80;63.10;;;;;;5054720;28;20037;-51
2023/02/11 11:16:54;;;;;;;25.02;21.30;;;19.60;63.10;;;;;;5054586;28;20020;-51
2023/02/11 11:19:24;;;;;;;25.50;20.10;;;19.30;63.90;;;;;;5053831;28;20361;-50
2023/02/11 11:21:55;;;;;;;30.17;23.92;;;19.30;63.00;;;;;;5052857;28;20924;-51
2023/02/11 11:24:21;;;;;;;26.58;21.42;;;;;;;;;;5052193;28;20043;-49
2023/02/11 11:27:01;;;;;;;32.42;21.98;;;18.40;89.70;;;;;;5052539;28;20032;-51
2023/02/11 11:29:38;;;;;;;22.38;19.15;;;18.60;64.70;;;;;;5049690;28;20033;-52
2023/02/11 11:32:31;;;;;;;22.98;18.52;;;18.60;64.40;;;;;;5051458;28;20060;-54
2023/02/11 11:35:05;;;;;;;26.13;19.65;;;19.10;63.30;;;;;;5043853;28;20029;-52
2023/02/11 11:37:37;;;;;;;24.27;17.92;;;19.20;63.80;;;;;;5052831;28;20029;-50
2023/02/11 11:40:20;;;;;;;22.83;18.73;;;18.80;64.20;;;;;;5048309;28;20086;-47
2023/02/11 11:43:12;;;;;;;30.42;19.33;;;17.90;64.10;;;;;;5052687;28;20123;-48
2023/02/11 11:45:50;;;;;;;23.83;17.83;;;17.90;64.80;;;;;;5053786;28;20029;-60
2023/02/11 11:48:39;;;;;;;24.23;19.00;;;17.80;64.50;;;;;;5052779;28;20033;-55
2023/02/11 11:51:09;;;;;;;22.65;19.13;;;17.80;63.90;;;;;;5054941;28;20041;-47
2023/02/11 11:53:39;;;;;;;24.77;18.55;;;17.00;64.50;;;;;;5054468;28;20040;-53
2023/02/11 11:56:21;;;;;;;23.17;17.85;;;16.90;65.30;;;;;;5054481;28;20350;-49
2023/02/11 11:58:48;;;;;;;21.83;17.35;;;17.00;65.10;;;;;;5053098;28;20050;-50
2023/02/11 12:01:41;;;;;;;21.30;18.63;;;16.50;65.70;;;;;;5054251;28;20052;-53
2023/02/11 12:04:44;;;;;;;22.30;17.77;;;16.50;65.90;;;;;;5054279;28;20350;-53
2023/02/11 12:07:11;;;;;;;21.77;17.63;;;;;;;;;;5054782;28;20029;-49
2023/02/11 12:09:58;;;;;;;21.90;18.35;;;15.40;66.20;;;;;;5054875;28;20021;-53
2023/02/11 12:12:47;;;;;;;27.88;19.40;;;15.80;67.40;;;;;;5054258;28;20025;-54
2023/02/11 12:15:35;;;;;;;21.77;16.85;;;14.90;66.90;;;;;;5051955;28;20488;-50
2023/02/11 12:18:26;;;;;;;22.27;17.17;;;14.10;69.10;;;;;;5052421;28;20086;-51
2023/02/11 12:20:58;;;;;;;20.60;16.87;;;14.20;68.30;;;;;;5052515;28;20377;-54
2023/02/11 12:24:17;;;;;;;22.85;18.30;;;15.20;67.70;;;;;;5054519;28;20276;-55
2023/02/11 12:26:46;;;;;;;25.40;16.60;;;15.90;66.70;;;;;;5052236;28;20055;-56
2023/02/11 12:29:28;;;;;;;20.75;16.15;;;15.90;66.50;;;;;;5052184;28;20036;-57
2023/02/11 12:32:16;;;;;;;26.02;18.05;;;16.30;65.60;;;;;;5046979;28;20025;-50
2023/02/11 12:34:54;;;;;;;20.33;15.80;;;16.30;66.30;;;;;;5032370;28;20115;-53
2023/02/11 12:37:31;;;;;;;20.15;15.48;;;16.10;65.80;;;;;;5032135;28;20029;-45
2023/02/11 12:40:21;;;;;;;24.98;16.02;;;14.90;66.10;;;;;;4999040;28;20041;-47
2023/02/11 12:45:48;;;;;;;24.45;16.25;;;15.30;66.80;;;;;;5030883;28;20076;-51
2023/02/11 12:48:44;;;;;;;23.35;15.70;;;15.50;65.50;;;;;;5031664;28;20084;-49
2023/02/11 12:51:32;;;;;;;19.67;15.77;;;14.70;66.90;;;;;;5007381;28;20087;-49
2023/02/11 12:54:09;;;;;;;20.13;14.55;;;14.00;67.40;;;;;;5050878;28;20043;-50
2023/02/11 12:56:53;;;;;;;22.23;15.43;;;13.00;68.20;;;;;;5051362;28;20037;-52
2023/02/11 12:59:37;;;;;;;22.10;15.98;;;12.60;68.70;;;;;;5050853;28;20150;-50
2023/02/11 13:02:37;;;;;;;28.05;16.00;;;12.80;69.30;;;;;;5053590;28;20041;-51
2023/02/11 13:05:40;;;;;;;20.92;14.57;;;13.90;68.70;;;;;;5050728;28;21109;-52
2023/02/11 13:08:12;;;;;;;21.00;14.50;;;14.50;66.60;;;;;;5053412;28;20029;-52